createdAt,value
2017-10-28T00:01:20.963Z,70.80
2017-10-28T00:03:47.446Z,70.74
2017-10-28T00:06:13.769Z,70.99
2017-10-28T00:08:40.206Z,70.34
2017-10-28T00:11:06.641Z,69.83
2017-10-28T00:13:33.095Z,68.52
2017-10-28T00:15:59.509Z,67.18
2017-10-28T00:18:26.661Z,67.47
2017-10-28T00:20:53.111Z,67.69
2017-10-28T00:23:19.531Z,67.84
2017-10-28T00:25:45.974Z,67.58
2017-10-28T00:28:12.432Z,67.15
2017-10-28T00:30:38.854Z,67.87
2017-10-28T00:33:05.270Z,67.35
2017-10-28T00:35:32.524Z,67.20
2017-10-28T00:37:58.967Z,67.43
2017-10-28T00:40:25.326Z,67.70
2017-10-28T00:42:51.724Z,68.14
2017-10-28T00:45:18.160Z,68.93
2017-10-28T00:47:44.603Z,69.63
2017-10-28T00:50:11.039Z,69.79
2017-10-28T00:52:38.270Z,69.19
2017-10-28T00:55:04.663Z,68.30
2017-10-28T00:57:31.094Z,67.82
2017-10-28T00:59:57.488Z,66.71
2017-10-28T01:02:23.817Z,68.12
2017-10-28T01:04:50.261Z,69.72
2017-10-28T01:07:16.687Z,69.35
2017-10-28T01:09:43.851Z,69.06
2017-10-28T01:12:10.282Z,68.79
2017-10-28T01:14:36.717Z,69.81
2017-10-28T01:17:03.044Z,71.17
2017-10-28T01:19:29.490Z,72.05
2017-10-28T01:21:55.918Z,73.08
2017-10-28T01:24:22.363Z,71.91
2017-10-28T01:26:49.602Z,72.15
2017-10-28T01:29:16.010Z,72.37
2017-10-28T01:31:42.436Z,72.32
2017-10-28T01:34:08.907Z,72.69
2017-10-28T01:36:35.345Z,73.15
2017-10-28T01:39:01.772Z,72.88
2017-10-28T01:41:28.207Z,72.93
2017-10-28T01:43:55.333Z,72.79
2017-10-28T01:46:21.774Z,72.95
2017-10-28T01:48:48.235Z,72.24
2017-10-28T01:51:14.662Z,72.99
2017-10-28T01:53:41.114Z,72.41
2017-10-28T01:56:07.531Z,72.20
2017-10-28T01:58:33.975Z,71.76
2017-10-28T02:01:01.164Z,73.08
2017-10-28T02:03:27.573Z,73.78
2017-10-28T02:05:53.988Z,73.73
2017-10-28T02:08:20.422Z,73.23
2017-10-28T02:10:46.883Z,73.80
2017-10-28T02:13:13.292Z,73.02
2017-10-28T02:15:39.735Z,73.30
2017-10-28T02:18:06.981Z,74.04
2017-10-28T02:20:33.423Z,72.97
2017-10-28T02:22:59.843Z,74.03
2017-10-28T02:25:26.183Z,73.48
2017-10-28T02:27:52.617Z,74.05
2017-10-28T02:30:19.052Z,74.90
2017-10-28T02:32:45.456Z,75.54
2017-10-28T02:35:12.629Z,76.05
2017-10-28T02:37:39.073Z,76.13
2017-10-28T02:40:05.514Z,76.18
2017-10-28T02:42:31.944Z,76.42
2017-10-28T02:44:58.353Z,75.83
2017-10-28T02:47:24.833Z,75.83
2017-10-28T02:49:51.249Z,75.45
2017-10-28T02:52:18.390Z,76.13
2017-10-28T02:54:44.843Z,76.11
2017-10-28T02:57:11.269Z,76.73
2017-10-28T02:59:37.711Z,74.60
2017-10-28T03:02:04.075Z,75.01
2017-10-28T03:04:30.511Z,75.34
2017-10-28T03:06:57.010Z,75.36
2017-10-28T03:09:24.090Z,75.24
2017-10-28T03:11:50.579Z,74.29
2017-10-28T03:14:17.031Z,75.08
2017-10-28T03:16:43.482Z,76.53
2017-10-28T03:19:09.907Z,75.92
2017-10-28T03:21:36.332Z,75.96
2017-10-28T03:24:02.793Z,76.79
2017-10-28T03:26:29.868Z,76.09
2017-10-28T03:28:56.251Z,76.74
2017-10-28T03:31:22.694Z,76.51
2017-10-28T03:33:49.120Z,76.61
2017-10-28T03:36:15.558Z,78.31
2017-10-28T03:38:41.998Z,78.85
2017-10-28T03:41:08.527Z,78.72
2017-10-28T03:43:35.653Z,78.59
2017-10-28T03:46:02.104Z,78.62
2017-10-28T03:48:28.593Z,79.08
2017-10-28T03:50:54.983Z,80.54
2017-10-28T03:53:21.417Z,81.71
2017-10-28T03:55:47.852Z,81.63
2017-10-28T03:58:14.309Z,82.66
2017-10-28T04:00:41.476Z,82.38
2017-10-28T04:03:07.984Z,84.50
2017-10-28T04:05:34.417Z,83.00
2017-10-28T04:08:00.846Z,83.83
2017-10-28T04:10:27.288Z,84.01
2017-10-28T04:12:53.612Z,83.41
2017-10-28T04:15:20.075Z,83.94
2017-10-28T04:17:47.309Z,84.08
2017-10-28T04:20:13.744Z,83.17
2017-10-28T04:22:40.295Z,83.44
2017-10-28T04:25:06.707Z,83.27
2017-10-28T04:27:33.039Z,82.40
2017-10-28T04:29:59.482Z,82.85
2017-10-28T04:32:25.808Z,81.63
2017-10-28T04:34:53.069Z,81.17
2017-10-28T04:37:19.504Z,81.20
2017-10-28T04:39:45.960Z,81.08
2017-10-28T04:42:12.365Z,80.78
2017-10-28T04:44:38.820Z,80.47
2017-10-28T04:47:05.171Z,80.86
2017-10-28T04:49:31.643Z,80.03
2017-10-28T04:51:58.809Z,80.10
2017-10-28T04:54:25.255Z,79.68
2017-10-28T04:56:51.628Z,79.59
2017-10-28T04:59:18.133Z,80.10
2017-10-28T05:01:44.560Z,79.44
2017-10-28T05:04:10.995Z,79.26
2017-10-28T05:06:37.437Z,78.46
2017-10-28T05:09:04.479Z,78.83
2017-10-28T05:11:30.922Z,77.26
2017-10-28T05:13:57.356Z,78.30
2017-10-28T05:16:23.783Z,78.31
2017-10-28T05:18:50.598Z,77.65
2017-10-28T05:21:17.125Z,77.79
2017-10-28T05:23:43.598Z,77.28
2017-10-28T05:26:10.034Z,77.63
2017-10-28T05:28:36.432Z,77.62
2017-10-28T05:31:02.938Z,76.89
2017-10-28T05:33:29.449Z,76.87
2017-10-28T05:35:55.875Z,77.12
2017-10-28T05:38:22.952Z,75.91
2017-10-28T05:40:49.470Z,76.67
2017-10-28T05:43:16.761Z,76.85
2017-10-28T05:45:43.466Z,76.18
2017-10-28T05:48:09.863Z,75.45
2017-10-28T05:50:36.328Z,75.87
2017-10-28T05:53:03.789Z,75.31
2017-10-28T05:55:30.333Z,75.33
2017-10-28T05:57:56.697Z,75.70
2017-10-28T06:00:23.318Z,75.71
2017-10-28T06:02:50.352Z,76.48
2017-10-28T06:05:16.805Z,76.36
2017-10-28T06:07:43.159Z,75.24
2017-10-28T06:10:09.862Z,74.62
2017-10-28T06:12:36.296Z,75.37
2017-10-28T06:15:02.659Z,74.81
2017-10-28T06:17:29.846Z,75.05
2017-10-28T06:19:56.305Z,74.94
2017-10-28T06:22:22.641Z,74.93
2017-10-28T06:24:49.084Z,74.38
2017-10-28T06:27:15.511Z,74.46
2017-10-28T06:29:42.086Z,73.90
2017-10-28T06:32:08.594Z,73.26
2017-10-28T06:34:35.109Z,73.62
2017-10-28T06:37:01.772Z,73.53
2017-10-28T06:39:28.267Z,72.35
2017-10-28T06:41:54.946Z,72.03
2017-10-28T06:44:21.426Z,72.70
2017-10-28T06:46:47.746Z,72.65
2017-10-28T06:49:14.076Z,72.08
2017-10-28T06:51:41.700Z,71.18
2017-10-28T06:54:08.135Z,70.44
2017-10-28T06:56:34.644Z,69.72
2017-10-28T06:59:01.480Z,70.25
2017-10-28T07:01:27.876Z,70.03
2017-10-28T07:03:54.284Z,70.67
2017-10-28T07:06:20.719Z,70.07
2017-10-28T07:08:47.154Z,70.50
2017-10-28T07:11:13.666Z,69.48
2017-10-28T07:13:40.108Z,70.15
2017-10-28T07:16:06.662Z,69.97
2017-10-28T07:18:33.106Z,69.08
2017-10-28T07:20:59.474Z,69.69
2017-10-28T07:23:25.866Z,68.96
2017-10-28T07:25:53.034Z,68.96
2017-10-28T07:28:19.536Z,69.19
2017-10-28T07:30:45.991Z,70.12
2017-10-28T07:33:12.832Z,68.88
2017-10-28T07:35:39.206Z,69.12
2017-10-28T07:38:06.634Z,69.31
2017-10-28T07:40:33.879Z,70.03
2017-10-28T07:43:01.156Z,69.12
2017-10-28T07:45:27.705Z,70.62
2017-10-28T07:47:54.931Z,70.55
2017-10-28T07:50:21.356Z,70.35
2017-10-28T07:52:47.791Z,69.95
2017-10-28T07:55:14.226Z,71.16
2017-10-28T07:57:40.661Z,71.18
2017-10-28T08:00:07.036Z,71.04
2017-10-28T08:02:33.428Z,70.25
2017-10-28T08:04:59.863Z,69.56
2017-10-28T08:07:26.511Z,69.94
2017-10-28T08:09:52.940Z,68.28
2017-10-28T08:12:19.789Z,68.15
2017-10-28T08:14:46.216Z,66.94
2017-10-28T08:17:12.652Z,67.29
2017-10-28T08:19:39.402Z,66.80
2017-10-28T08:22:05.827Z,65.87
2017-10-28T08:24:32.262Z,66.78
2017-10-28T08:26:59.156Z,66.09
2017-10-28T08:29:25.541Z,65.42
2017-10-28T08:31:52.087Z,65.67
2017-10-28T08:34:18.514Z,65.63
2017-10-28T08:36:45.360Z,65.93
2017-10-28T08:39:13.794Z,65.41
2017-10-28T08:41:40.492Z,65.11
2017-10-28T08:44:07.345Z,63.92
2017-10-28T08:46:33.839Z,63.32
2017-10-28T08:49:00.503Z,63.40
2017-10-28T08:51:27.501Z,64.31
2017-10-28T08:53:54.002Z,65.10
2017-10-28T08:56:20.830Z,64.18
2017-10-28T08:58:47.469Z,64.48
2017-10-28T09:01:14.114Z,64.57
2017-10-28T09:03:40.872Z,64.67
2017-10-28T09:06:07.294Z,64.43
2017-10-28T09:08:34.240Z,63.50
2017-10-28T09:11:00.789Z,65.20
2017-10-28T09:13:27.410Z,65.14
2017-10-28T09:15:54.411Z,64.89
2017-10-28T09:18:21.199Z,66.27
2017-10-28T09:20:47.731Z,66.85
2017-10-28T09:23:14.180Z,67.93
2017-10-28T09:25:40.567Z,70.49
2017-10-28T09:28:07.451Z,71.68
2017-10-28T09:30:33.996Z,72.59
2017-10-28T09:33:00.464Z,73.50
2017-10-28T09:35:26.969Z,72.80
2017-10-28T09:37:53.804Z,72.85
2017-10-28T09:40:20.238Z,72.35
2017-10-28T09:42:46.683Z,74.26
2017-10-28T09:45:13.110Z,73.62
2017-10-28T09:47:39.859Z,74.05
2017-10-28T09:50:06.252Z,73.16
2017-10-28T09:52:32.726Z,73.99
2017-10-28T09:54:59.368Z,72.69
2017-10-28T09:57:25.804Z,72.78
2017-10-28T09:59:52.340Z,72.46
2017-10-28T10:02:19.082Z,70.39
2017-10-28T10:04:45.508Z,70.58
2017-10-28T10:07:11.841Z,69.76
2017-10-28T10:09:38.685Z,71.10
2017-10-28T10:12:05.191Z,69.06
2017-10-28T10:14:31.663Z,68.67
2017-10-28T10:16:58.605Z,66.17
2017-10-28T10:19:25.038Z,67.04
2017-10-28T10:21:51.562Z,66.62
2017-10-28T10:24:18.316Z,66.50
2017-10-28T10:26:44.868Z,66.19
2017-10-28T10:29:11.219Z,65.00
2017-10-28T10:31:37.731Z,65.15
2017-10-28T10:34:05.531Z,65.11
2017-10-28T10:36:31.903Z,63.41
2017-10-28T10:38:58.469Z,64.46
2017-10-28T10:41:25.408Z,64.11
2017-10-28T10:43:52.284Z,63.56
2017-10-28T10:46:18.789Z,64.23
2017-10-28T10:48:45.429Z,63.34
2017-10-28T10:51:11.863Z,61.43
2017-10-28T10:53:38.615Z,62.44
2017-10-28T10:56:05.450Z,60.89
2017-10-28T10:58:31.827Z,61.70
2017-10-28T11:00:58.289Z,61.92
2017-10-28T11:03:25.132Z,62.66
2017-10-28T11:05:51.497Z,63.13
2017-10-28T11:08:17.933Z,62.73
2017-10-28T11:10:44.585Z,62.33
2017-10-28T11:13:10.967Z,62.51
2017-10-28T11:15:37.338Z,63.58
2017-10-28T11:18:04.190Z,64.00
2017-10-28T11:20:30.750Z,64.49
2017-10-28T11:22:57.223Z,65.88
2017-10-28T11:25:23.840Z,64.21
2017-10-28T11:27:50.162Z,65.12
2017-10-28T11:30:16.561Z,65.18
2017-10-28T11:32:43.172Z,64.97
2017-10-28T11:35:09.642Z,65.75
2017-10-28T11:37:36.006Z,65.14
2017-10-28T11:40:02.915Z,65.56
2017-10-28T11:42:29.282Z,66.11
2017-10-28T11:44:55.793Z,65.30
2017-10-28T11:47:22.227Z,65.03
2017-10-28T11:49:48.653Z,66.03
2017-10-28T11:52:15.093Z,66.55
2017-10-28T11:54:41.421Z,66.02
2017-10-28T11:57:07.867Z,66.07
2017-10-28T11:59:34.290Z,66.33
2017-10-28T12:02:01.171Z,66.45
2017-10-28T12:04:27.680Z,66.60
2017-10-28T12:06:54.110Z,66.49
2017-10-28T12:09:21.166Z,65.78
2017-10-28T12:11:47.591Z,65.81
2017-10-28T12:14:14.033Z,66.02
2017-10-28T12:16:40.775Z,65.98
2017-10-28T12:19:07.312Z,65.73
2017-10-28T12:21:33.846Z,66.28
2017-10-28T12:24:00.788Z,67.32
2017-10-28T12:26:27.430Z,66.48
2017-10-28T12:28:53.871Z,65.68
2017-10-28T12:31:20.706Z,65.72
2017-10-28T12:33:47.191Z,64.65
2017-10-28T12:36:13.615Z,64.89
2017-10-28T12:38:40.318Z,65.54
2017-10-28T12:41:06.752Z,65.46
2017-10-28T12:43:33.329Z,64.75
2017-10-28T12:45:59.724Z,64.46
2017-10-28T12:48:26.090Z,64.35
2017-10-28T12:50:53.003Z,64.42
2017-10-28T12:53:19.549Z,64.14
2017-10-28T12:55:45.974Z,63.86
2017-10-28T12:58:12.308Z,64.54
2017-10-28T13:00:38.741Z,64.46
2017-10-28T13:03:05.382Z,64.97
2017-10-28T13:05:31.815Z,64.54
2017-10-28T13:07:58.243Z,64.89
2017-10-28T13:10:24.926Z,65.48
2017-10-28T13:12:51.325Z,66.71
2017-10-28T13:15:17.657Z,68.55
2017-10-28T13:17:44.399Z,70.25
2017-10-28T13:20:10.834Z,71.37
2017-10-28T13:22:37.270Z,72.87
2017-10-28T13:25:03.712Z,74.26
2017-10-28T13:27:30.678Z,75.89
2017-10-28T13:29:57.095Z,76.45
2017-10-28T13:32:24.544Z,76.40
2017-10-28T13:34:50.979Z,76.22
2017-10-28T13:37:17.413Z,75.45
2017-10-28T13:39:43.849Z,75.28
2017-10-28T13:42:10.840Z,75.24
2017-10-28T13:44:37.235Z,75.37
2017-10-28T13:47:03.664Z,76.18
2017-10-28T13:49:30.098Z,75.94
2017-10-28T13:51:56.533Z,75.48
2017-10-28T13:54:22.971Z,75.28
2017-10-28T13:56:49.410Z,73.53
2017-10-28T13:59:15.839Z,73.02
2017-10-28T14:01:42.215Z,73.14
2017-10-28T14:04:08.604Z,72.67
2017-10-28T14:06:35.039Z,73.20
2017-10-28T14:09:01.751Z,73.23
2017-10-28T14:11:28.216Z,73.46
2017-10-28T14:13:54.651Z,73.97
2017-10-28T14:16:21.087Z,74.33
2017-10-28T14:18:48.067Z,74.48
2017-10-28T14:21:14.574Z,74.80
2017-10-28T14:23:41.011Z,75.43
2017-10-28T14:26:07.372Z,76.05
2017-10-28T14:28:33.773Z,76.73
2017-10-28T14:31:00.207Z,76.85
2017-10-28T14:33:26.752Z,76.99
2017-10-28T14:35:53.115Z,76.73
2017-10-28T14:38:19.511Z,76.32
2017-10-28T14:40:45.954Z,76.30
2017-10-28T14:43:12.336Z,76.52
2017-10-28T14:45:39.020Z,76.77
2017-10-28T14:48:05.352Z,76.96
2017-10-28T14:50:31.895Z,77.25
2017-10-28T14:52:58.427Z,77.59
2017-10-28T14:55:24.861Z,77.30
2017-10-28T14:57:51.490Z,77.53
2017-10-28T15:00:17.806Z,78.24
2017-10-28T15:02:44.284Z,78.15
2017-10-28T15:05:10.848Z,77.69
2017-10-28T15:07:37.589Z,77.24
2017-10-28T15:10:03.925Z,77.34
2017-10-28T15:12:30.499Z,77.76
2017-10-28T15:14:56.962Z,78.03
2017-10-28T15:17:23.490Z,77.93
2017-10-28T15:19:50.458Z,78.13
2017-10-28T15:22:17.281Z,78.38
2017-10-28T15:24:43.716Z,78.59
2017-10-28T15:27:10.152Z,78.79
2017-10-28T15:29:36.594Z,78.64
2017-10-28T15:32:03.020Z,78.58
2017-10-28T15:34:29.456Z,78.62
2017-10-28T15:36:55.908Z,78.81
2017-10-28T15:39:22.294Z,78.94
2017-10-28T15:41:48.694Z,79.21
2017-10-28T15:44:15.159Z,79.47
2017-10-28T15:46:41.637Z,79.88
2017-10-28T15:49:08.072Z,80.13
2017-10-28T15:51:34.599Z,80.21
2017-10-28T15:54:01.036Z,80.56
2017-10-28T15:56:27.470Z,80.37
2017-10-28T15:58:53.803Z,80.08
2017-10-28T16:01:20.238Z,80.19
2017-10-28T16:03:46.671Z,80.39
2017-10-28T16:06:13.003Z,80.89
2017-10-28T16:08:39.335Z,81.29
2017-10-28T16:11:05.671Z,81.32
2017-10-28T16:13:32.317Z,81.09
2017-10-28T16:15:58.752Z,80.85
2017-10-28T16:18:25.111Z,80.93
2017-10-28T16:20:51.579Z,80.86
2017-10-28T16:23:18.670Z,80.84
2017-10-28T16:25:45.119Z,81.12
2017-10-28T16:28:11.539Z,81.16
2017-10-28T16:30:37.966Z,81.39
2017-10-28T16:33:04.404Z,81.62
2017-10-28T16:35:30.844Z,81.80
2017-10-28T16:37:57.371Z,82.03
2017-10-28T16:40:23.805Z,82.10
2017-10-28T16:42:50.243Z,82.14
2017-10-28T16:45:16.685Z,82.04
2017-10-28T16:47:43.100Z,82.26
2017-10-28T16:50:09.550Z,82.25
2017-10-28T16:52:35.981Z,81.77
2017-10-28T16:55:02.400Z,81.48
2017-10-28T16:57:28.843Z,81.15
2017-10-28T16:59:55.296Z,81.23
2017-10-28T17:02:21.721Z,81.15
2017-10-28T17:04:48.154Z,80.99
2017-10-28T17:07:14.688Z,81.35
2017-10-28T17:09:41.135Z,81.28
2017-10-28T17:12:07.561Z,81.10
2017-10-28T17:14:34.025Z,81.04
2017-10-28T17:17:00.541Z,81.12
2017-10-28T17:19:27.585Z,81.36
2017-10-28T17:21:53.964Z,81.50
2017-10-28T17:24:20.352Z,81.54
2017-10-28T17:26:46.792Z,81.45
2017-10-28T17:29:13.228Z,81.56
2017-10-28T17:31:39.652Z,81.45
2017-10-28T17:34:06.086Z,81.17
2017-10-28T17:36:33.341Z,81.11
2017-10-28T17:38:59.778Z,81.16
2017-10-28T17:41:26.220Z,81.05
2017-10-28T17:43:52.654Z,81.06
2017-10-28T17:46:19.089Z,81.27
2017-10-28T17:48:45.523Z,81.61
2017-10-28T17:51:11.971Z,81.55
2017-10-28T17:53:39.212Z,81.48
2017-10-28T17:56:05.655Z,81.83
2017-10-28T17:58:32.077Z,82.16
2017-10-28T18:00:58.508Z,82.16
2017-10-28T18:03:25.053Z,82.31
2017-10-28T18:05:51.489Z,82.15
2017-10-28T18:08:17.923Z,82.27
2017-10-28T18:10:45.178Z,82.28
2017-10-28T18:13:11.612Z,82.23
2017-10-28T18:15:38.037Z,82.25
2017-10-28T18:18:04.473Z,81.97
2017-10-28T18:20:31.124Z,82.19
2017-10-28T18:22:57.548Z,81.93
2017-10-28T18:25:23.982Z,81.99
2017-10-28T18:27:51.143Z,81.88
2017-10-28T18:30:17.577Z,81.78
2017-10-28T18:32:44.002Z,81.81
2017-10-28T18:35:10.509Z,81.80
2017-10-28T18:37:36.986Z,81.72
2017-10-28T18:40:03.409Z,81.54
2017-10-28T18:42:29.844Z,81.56
2017-10-28T18:44:57.100Z,81.55
2017-10-28T18:47:23.535Z,81.18
2017-10-28T18:49:49.864Z,80.97
2017-10-28T18:52:16.321Z,80.54
2017-10-28T18:54:42.754Z,79.94
2017-10-28T18:57:09.177Z,79.46
2017-10-28T18:59:35.603Z,79.27
2017-10-28T19:02:02.765Z,79.19
2017-10-28T19:04:29.145Z,79.09
2017-10-28T19:06:55.522Z,78.78
2017-10-28T19:09:21.889Z,77.77
2017-10-28T19:11:48.401Z,76.77
2017-10-28T19:14:14.867Z,77.19
2017-10-28T19:16:41.204Z,77.39
2017-10-28T19:19:08.536Z,77.08
2017-10-28T19:21:34.885Z,76.91
2017-10-28T19:24:01.202Z,77.20
2017-10-28T19:26:27.615Z,77.50
2017-10-28T19:28:54.050Z,77.99
2017-10-28T19:31:20.484Z,78.28
2017-10-28T19:33:47.021Z,78.19
2017-10-28T19:36:14.078Z,78.23
2017-10-28T19:38:40.616Z,78.34
2017-10-28T19:41:07.042Z,78.43
2017-10-28T19:43:33.485Z,78.68
2017-10-28T19:45:59.878Z,78.81
2017-10-28T19:48:26.355Z,79.05
2017-10-28T19:50:52.781Z,78.90
2017-10-28T19:53:19.972Z,78.80
2017-10-28T19:55:46.479Z,78.32
2017-10-28T19:58:12.914Z,78.28
2017-10-28T20:00:39.339Z,78.20
2017-10-28T20:03:05.782Z,78.11
2017-10-28T20:05:32.218Z,77.96
2017-10-28T20:07:58.643Z,77.71
2017-10-28T20:10:25.733Z,77.77
2017-10-28T20:12:52.111Z,77.81
2017-10-28T20:15:18.502Z,77.79
2017-10-28T20:17:44.996Z,77.78
2017-10-28T20:20:11.440Z,78.03
2017-10-28T20:22:37.771Z,78.05
2017-10-28T20:25:04.211Z,78.00
2017-10-28T20:27:31.453Z,78.24
2017-10-28T20:29:57.785Z,78.34
2017-10-28T20:32:24.218Z,78.24
2017-10-28T20:34:50.654Z,78.37
2017-10-28T20:37:17.099Z,78.51
2017-10-28T20:39:43.459Z,78.52
2017-10-28T20:42:09.861Z,78.28
2017-10-28T20:44:37.120Z,78.34
2017-10-28T20:47:03.544Z,78.21
2017-10-28T20:49:29.989Z,77.95
2017-10-28T20:51:56.415Z,77.44
2017-10-28T20:54:22.851Z,76.93
2017-10-28T20:56:49.283Z,77.07
2017-10-28T20:59:15.726Z,77.04
2017-10-28T21:01:42.834Z,76.90
2017-10-28T21:04:09.314Z,76.63
2017-10-28T21:06:35.739Z,76.40
2017-10-28T21:09:02.196Z,76.18
2017-10-28T21:11:28.624Z,76.17
2017-10-28T21:13:55.052Z,76.40
2017-10-28T21:16:21.478Z,76.20
2017-10-28T21:18:48.639Z,75.70
2017-10-28T21:21:15.064Z,75.68
2017-10-28T21:23:41.507Z,75.47
2017-10-28T21:26:07.923Z,75.31
2017-10-28T21:28:34.370Z,75.42
2017-10-28T21:31:00.803Z,75.48
2017-10-28T21:33:27.172Z,75.12
2017-10-28T21:35:54.409Z,74.94
2017-10-28T21:38:20.834Z,74.94
2017-10-28T21:40:47.164Z,75.02
2017-10-28T21:43:13.602Z,74.97
2017-10-28T21:45:40.028Z,74.92
2017-10-28T21:48:06.543Z,74.77
2017-10-28T21:50:32.985Z,74.59
2017-10-28T21:53:00.193Z,74.66
2017-10-28T21:55:26.698Z,74.60
2017-10-28T21:57:53.133Z,74.64
2017-10-28T22:00:19.562Z,74.85
2017-10-28T22:02:45.992Z,74.59
2017-10-28T22:05:12.438Z,74.49
2017-10-28T22:07:38.832Z,74.38
2017-10-28T22:10:06.123Z,73.74
2017-10-28T22:12:32.558Z,73.93
2017-10-28T22:14:58.992Z,73.45
2017-10-28T22:17:25.359Z,73.54
2017-10-28T22:19:51.750Z,73.25
2017-10-28T22:22:18.185Z,73.30
2017-10-28T22:24:44.619Z,73.17
2017-10-28T22:27:11.772Z,73.01
2017-10-28T22:29:38.214Z,73.01
2017-10-28T22:32:04.642Z,73.12
2017-10-28T22:34:31.085Z,72.86
2017-10-28T22:36:57.527Z,72.94
2017-10-28T22:39:23.955Z,72.77
2017-10-28T22:41:50.388Z,72.64
2017-10-28T22:44:17.561Z,72.37
2017-10-28T22:46:44.077Z,72.54
2017-10-28T22:49:10.511Z,72.59
2017-10-28T22:51:36.948Z,72.52
2017-10-28T22:54:03.373Z,72.50
2017-10-28T22:56:29.808Z,72.56
2017-10-28T22:58:56.250Z,72.20
2017-10-28T23:01:23.393Z,72.32
2017-10-28T23:03:49.828Z,72.01
2017-10-28T23:06:16.161Z,72.06
2017-10-28T23:08:42.624Z,72.17
2017-10-28T23:11:08.978Z,71.97
2017-10-28T23:13:35.363Z,72.07
2017-10-28T23:16:01.798Z,71.95
2017-10-28T23:18:28.949Z,72.08
2017-10-28T23:20:55.347Z,72.08
2017-10-28T23:23:21.827Z,72.07
2017-10-28T23:25:48.253Z,72.23
2017-10-28T23:28:14.688Z,72.04
2017-10-28T23:30:41.116Z,72.01
2017-10-28T23:33:07.558Z,71.90
2017-10-28T23:35:34.743Z,71.76
2017-10-28T23:38:01.145Z,71.94
2017-10-28T23:40:27.578Z,72.10
2017-10-28T23:42:54.023Z,71.93
2017-10-28T23:45:20.458Z,71.71
2017-10-28T23:47:46.892Z,71.86
2017-10-28T23:50:13.317Z,71.48
2017-10-28T23:52:40.366Z,71.48
2017-10-28T23:55:06.801Z,71.76
2017-10-28T23:57:33.204Z,71.82
2017-10-28T23:59:59.639Z,71.82
